sensor_id;sensor_type;location;lat;lon;timestamp;P1;durP1;ratioP1;P2;durP2;ratioP2
67191;SDS011;54120;53.504;49.426;2023-02-12T00:00:44;36.47;;;17.75;;
67191;SDS011;54120;53.504;49.426;2023-02-12T00:03:10;36.08;;;18.75;;
67191;SDS011;54120;53.504;49.426;2023-02-12T00:05:37;34.22;;;18.02;;
67191;SDS011;54120;53.504;49.426;2023-02-12T00:08:04;31.38;;;16.52;;
67191;SDS011;54120;53.504;49.426;2023-02-12T00:10:30;34.92;;;18.27;;
67191;SDS011;54120;53.504;49.426;2023-02-12T00:12:56;38.20;;;20.27;;
67191;SDS011;54120;53.504;49.426;2023-02-12T00:15:22;31.52;;;17.60;;
67191;SDS011;54120;53.504;49.426;2023-02-12T00:17:48;32.95;;;17.92;;
67191;SDS011;54120;53.504;49.426;2023-02-12T00:20:13;36.05;;;18.42;;
67191;SDS011;54120;53.504;49.426;2023-02-12T00:22:40;34.65;;;16.98;;
67191;SDS011;54120;53.504;49.426;2023-02-12T00:25:06;35.17;;;17.95;;
67191;SDS011;54120;53.504;49.426;2023-02-12T00:27:32;29.27;;;16.88;;
67191;SDS011;54120;53.504;49.426;2023-02-12T00:29:58;30.88;;;16.27;;
67191;SDS011;54120;53.504;49.426;2023-02-12T00:32:24;33.28;;;17.95;;
67191;SDS011;54120;53.504;49.426;2023-02-12T00:34:51;32.58;;;16.40;;
67191;SDS011;54120;53.504;49.426;2023-02-12T00:37:16;31.40;;;17.40;;
67191;SDS011;54120;53.504;49.426;2023-02-12T00:39:42;32.28;;;17.20;;
67191;SDS011;54120;53.504;49.426;2023-02-12T00:42:08;30.38;;;16.90;;
67191;SDS011;54120;53.504;49.426;2023-02-12T00:44:34;34.38;;;17.65;;
67191;SDS011;54120;53.504;49.426;2023-02-12T00:47:01;36.60;;;18.65;;
67191;SDS011;54120;53.504;49.426;2023-02-12T00:49:28;33.97;;;16.65;;
67191;SDS011;54120;53.504;49.426;2023-02-12T00:52:00;31.45;;;16.80;;
67191;SDS011;54120;53.504;49.426;2023-02-12T00:54:27;33.80;;;17.65;;
67191;SDS011;54120;53.504;49.426;2023-02-12T00:56:54;33.42;;;16.27;;
67191;SDS011;54120;53.504;49.426;2023-02-12T00:59:24;33.50;;;16.88;;
67191;SDS011;54120;53.504;49.426;2023-02-12T01:01:51;32.83;;;16.63;;
67191;SDS011;54120;53.504;49.426;2023-02-12T01:04:18;32.88;;;17.08;;
67191;SDS011;54120;53.504;49.426;2023-02-12T01:06:45;32.20;;;16.63;;
67191;SDS011;54120;53.504;49.426;2023-02-12T01:09:11;30.67;;;17.10;;
67191;SDS011;54120;53.504;49.426;2023-02-12T01:11:38;34.05;;;17.85;;
67191;SDS011;54120;53.504;49.426;2023-02-12T01:14:04;32.53;;;16.50;;
67191;SDS011;54120;53.504;49.426;2023-02-12T01:16:31;31.25;;;15.90;;
67191;SDS011;54120;53.504;49.426;2023-02-12T01:18:58;30.13;;;15.25;;
67191;SDS011;54120;53.504;49.426;2023-02-12T01:21:28;31.17;;;17.52;;
67191;SDS011;54120;53.504;49.426;2023-02-12T01:23:56;29.23;;;15.95;;
67191;SDS011;54120;53.504;49.426;2023-02-12T01:26:23;32.63;;;16.95;;
67191;SDS011;54120;53.504;49.426;2023-02-12T01:28:50;27.20;;;14.95;;
67191;SDS011;54120;53.504;49.426;2023-02-12T01:31:19;32.25;;;15.55;;
67191;SDS011;54120;53.504;49.426;2023-02-12T01:33:47;28.17;;;15.02;;
67191;SDS011;54120;53.504;49.426;2023-02-12T01:36:14;27.23;;;14.43;;
67191;SDS011;54120;53.504;49.426;2023-02-12T01:38:41;25.17;;;15.13;;
67191;SDS011;54120;53.504;49.426;2023-02-12T01:41:12;28.30;;;14.02;;
67191;SDS011;54120;53.504;49.426;2023-02-12T01:43:43;23.80;;;13.05;;
67191;SDS011;54120;53.504;49.426;2023-02-12T01:46:11;26.58;;;13.32;;
67191;SDS011;54120;53.504;49.426;2023-02-12T01:48:42;29.38;;;14.27;;
67191;SDS011;54120;53.504;49.426;2023-02-12T01:51:14;27.00;;;13.40;;
67191;SDS011;54120;53.504;49.426;2023-02-12T01:53:46;24.50;;;13.05;;
67191;SDS011;54120;53.504;49.426;2023-02-12T01:56:15;29.30;;;11.88;;
67191;SDS011;54120;53.504;49.426;2023-02-12T01:58:42;24.58;;;13.38;;
67191;SDS011;54120;53.504;49.426;2023-02-12T02:01:11;25.88;;;12.93;;
67191;SDS011;54120;53.504;49.426;2023-02-12T02:03:43;29.23;;;13.30;;
67191;SDS011;54120;53.504;49.426;2023-02-12T02:06:12;23.38;;;12.45;;
67191;SDS011;54120;53.504;49.426;2023-02-12T02:08:41;22.88;;;12.18;;
67191;SDS011;54120;53.504;49.426;2023-02-12T02:11:07;22.63;;;11.52;;
67191;SDS011;54120;53.504;49.426;2023-02-12T02:13:55;24.00;;;11.57;;
67191;SDS011;54120;53.504;49.426;2023-02-12T02:16:41;23.38;;;12.07;;
67191;SDS011;54120;53.504;49.426;2023-02-12T02:19:34;20.23;;;12.48;;
67191;SDS011;54120;53.504;49.426;2023-02-12T02:24:52;24.52;;;12.32;;
67191;SDS011;54120;53.504;49.426;2023-02-12T02:38:05;25.13;;;13.48;;
67191;SDS011;54120;53.504;49.426;2023-02-12T02:40:37;20.73;;;11.02;;
67191;SDS011;54120;53.504;49.426;2023-02-12T02:43:23;21.45;;;11.70;;
67191;SDS011;54120;53.504;49.426;2023-02-12T02:46:39;20.05;;;10.65;;
67191;SDS011;54120;53.504;49.426;2023-02-12T02:48:51;18.60;;;10.65;;
67191;SDS011;54120;53.504;49.426;2023-02-12T02:51:22;19.55;;;11.55;;
67191;SDS011;54120;53.504;49.426;2023-02-12T02:53:56;18.83;;;10.77;;
67191;SDS011;54120;53.504;49.426;2023-02-12T02:56:28;20.60;;;10.88;;
67191;SDS011;54120;53.504;49.426;2023-02-12T02:58:59;23.88;;;11.77;;
67191;SDS011;54120;53.504;49.426;2023-02-12T03:01:37;18.70;;;10.60;;
67191;SDS011;54120;53.504;49.426;2023-02-12T03:04:09;18.92;;;9.93;;
67191;SDS011;54120;53.504;49.426;2023-02-12T03:06:58;22.17;;;10.73;;
67191;SDS011;54120;53.504;49.426;2023-02-12T03:12:08;20.00;;;10.65;;
67191;SDS011;54120;53.504;49.426;2023-02-12T03:14:38;16.33;;;9.18;;
67191;SDS011;54120;53.504;49.426;2023-02-12T03:17:15;17.90;;;10.25;;
67191;SDS011;54120;53.504;49.426;2023-02-12T03:19:47;17.45;;;9.40;;
67191;SDS011;54120;53.504;49.426;2023-02-12T03:22:24;26.08;;;9.80;;
67191;SDS011;54120;53.504;49.426;2023-02-12T03:25:00;19.17;;;10.35;;
67191;SDS011;54120;53.504;49.426;2023-02-12T03:27:37;16.55;;;9.30;;
67191;SDS011;54120;53.504;49.426;2023-02-12T03:30:08;17.00;;;8.30;;
67191;SDS011;54120;53.504;49.426;2023-02-12T03:32:39;20.70;;;10.27;;
67191;SDS011;54120;53.504;49.426;2023-02-12T03:35:22;16.48;;;9.60;;
67191;SDS011;54120;53.504;49.426;2023-02-12T03:49:06;14.02;;;7.95;;
67191;SDS011;54120;53.504;49.426;2023-02-12T03:51:39;14.43;;;9.35;;
67191;SDS011;54120;53.504;49.426;2023-02-12T03:54:07;15.73;;;8.98;;
67191;SDS011;54120;53.504;49.426;2023-02-12T03:56:41;21.85;;;9.73;;
67191;SDS011;54120;53.504;49.426;2023-02-12T03:59:13;15.20;;;8.10;;
67191;SDS011;54120;53.504;49.426;2023-02-12T04:01:39;17.65;;;8.52;;
67191;SDS011;54120;53.504;49.426;2023-02-12T04:04:06;17.90;;;10.32;;
67191;SDS011;54120;53.504;49.426;2023-02-12T04:06:34;16.63;;;9.30;;
67191;SDS011;54120;53.504;49.426;2023-02-12T04:09:01;15.02;;;8.73;;
67191;SDS011;54120;53.504;49.426;2023-02-12T04:17:08;15.95;;;9.48;;
67191;SDS011;54120;53.504;49.426;2023-02-12T04:19:57;13.88;;;7.57;;
67191;SDS011;54120;53.504;49.426;2023-02-12T04:22:35;16.17;;;8.55;;
67191;SDS011;54120;53.504;49.426;2023-02-12T04:25:20;15.70;;;9.93;;
67191;SDS011;54120;53.504;49.426;2023-02-12T04:31:12;20.63;;;9.55;;
67191;SDS011;54120;53.504;49.426;2023-02-12T04:33:50;17.38;;;9.02;;
67191;SDS011;54120;53.504;49.426;2023-02-12T04:36:48;16.58;;;9.77;;
67191;SDS011;54120;53.504;49.426;2023-02-12T04:39:20;18.00;;;9.68;;
67191;SDS011;54120;53.504;49.426;2023-02-12T04:41:50;19.65;;;10.23;;
67191;SDS011;54120;53.504;49.426;2023-02-12T04:44:21;16.95;;;9.77;;
67191;SDS011;54120;53.504;49.426;2023-02-12T04:46:50;18.08;;;9.95;;
67191;SDS011;54120;53.504;49.426;2023-02-12T04:49:17;18.17;;;9.98;;
67191;SDS011;54120;53.504;49.426;2023-02-12T04:51:44;17.08;;;10.15;;
67191;SDS011;54120;53.504;49.426;2023-02-12T04:54:11;15.57;;;9.20;;
67191;SDS011;54120;53.504;49.426;2023-02-12T04:56:38;17.48;;;9.18;;
67191;SDS011;54120;53.504;49.426;2023-02-12T04:59:04;16.80;;;9.60;;
67191;SDS011;54120;53.504;49.426;2023-02-12T05:01:32;15.27;;;8.38;;
67191;SDS011;54120;53.504;49.426;2023-02-12T05:03:59;16.40;;;8.85;;
67191;SDS011;54120;53.504;49.426;2023-02-12T05:06:25;15.68;;;8.73;;
67191;SDS011;54120;53.504;49.426;2023-02-12T05:08:52;13.85;;;8.45;;
67191;SDS011;54120;53.504;49.426;2023-02-12T05:11:18;14.98;;;8.98;;
67191;SDS011;54120;53.504;49.426;2023-02-12T05:13:48;13.38;;;7.78;;
67191;SDS011;54120;53.504;49.426;2023-02-12T05:16:15;15.63;;;8.65;;
67191;SDS011;54120;53.504;49.426;2023-02-12T05:18:41;14.02;;;8.52;;
67191;SDS011;54120;53.504;49.426;2023-02-12T05:21:07;13.73;;;7.95;;
67191;SDS011;54120;53.504;49.426;2023-02-12T05:23:35;14.18;;;7.38;;
67191;SDS011;54120;53.504;49.426;2023-02-12T05:26:03;12.00;;;6.90;;
67191;SDS011;54120;53.504;49.426;2023-02-12T05:28:34;10.02;;;6.95;;
67191;SDS011;54120;53.504;49.426;2023-02-12T05:31:01;12.48;;;7.20;;
67191;SDS011;54120;53.504;49.426;2023-02-12T05:33:29;14.07;;;8.15;;
67191;SDS011;54120;53.504;49.426;2023-02-12T05:36:01;10.52;;;7.03;;
67191;SDS011;54120;53.504;49.426;2023-02-12T05:38:29;13.73;;;8.18;;
67191;SDS011;54120;53.504;49.426;2023-02-12T05:40:59;11.63;;;7.00;;
67191;SDS011;54120;53.504;49.426;2023-02-12T05:43:27;11.77;;;6.97;;
67191;SDS011;54120;53.504;49.426;2023-02-12T05:45:53;10.75;;;6.70;;
67191;SDS011;54120;53.504;49.426;2023-02-12T05:48:18;11.95;;;6.60;;
67191;SDS011;54120;53.504;49.426;2023-02-12T05:50:44;11.35;;;7.05;;
67191;SDS011;54120;53.504;49.426;2023-02-12T05:53:10;10.63;;;6.93;;
67191;SDS011;54120;53.504;49.426;2023-02-12T05:55:36;9.52;;;6.35;;
67191;SDS011;54120;53.504;49.426;2023-02-12T05:58:02;11.07;;;6.97;;
67191;SDS011;54120;53.504;49.426;2023-02-12T06:00:28;10.40;;;6.45;;
67191;SDS011;54120;53.504;49.426;2023-02-12T06:02:54;9.77;;;5.35;;
67191;SDS011;54120;53.504;49.426;2023-02-12T06:05:20;11.23;;;6.55;;
67191;SDS011;54120;53.504;49.426;2023-02-12T06:07:46;8.88;;;5.85;;
67191;SDS011;54120;53.504;49.426;2023-02-12T06:10:12;11.48;;;5.93;;
67191;SDS011;54120;53.504;49.426;2023-02-12T06:12:38;9.88;;;6.30;;
67191;SDS011;54120;53.504;49.426;2023-02-12T06:15:04;10.80;;;5.80;;
67191;SDS011;54120;53.504;49.426;2023-02-12T06:17:30;10.13;;;6.32;;
67191;SDS011;54120;53.504;49.426;2023-02-12T06:19:58;10.85;;;6.07;;
67191;SDS011;54120;53.504;49.426;2023-02-12T06:22:24;12.43;;;6.45;;
67191;SDS011;54120;53.504;49.426;2023-02-12T06:24:50;8.07;;;4.38;;
67191;SDS011;54120;53.504;49.426;2023-02-12T06:27:16;10.75;;;5.80;;
67191;SDS011;54120;53.504;49.426;2023-02-12T06:29:42;9.02;;;5.80;;
67191;SDS011;54120;53.504;49.426;2023-02-12T06:32:08;9.80;;;5.82;;
67191;SDS011;54120;53.504;49.426;2023-02-12T06:34:38;16.88;;;6.15;;
67191;SDS011;54120;53.504;49.426;2023-02-12T06:37:04;8.98;;;5.57;;
67191;SDS011;54120;53.504;49.426;2023-02-12T06:39:30;10.02;;;6.05;;
67191;SDS011;54120;53.504;49.426;2023-02-12T06:41:56;11.38;;;5.35;;
67191;SDS011;54120;53.504;49.426;2023-02-12T06:44:22;13.05;;;7.47;;
67191;SDS011;54120;53.504;49.426;2023-02-12T06:46:48;9.90;;;6.25;;
67191;SDS011;54120;53.504;49.426;2023-02-12T06:49:14;12.63;;;7.13;;
67191;SDS011;54120;53.504;49.426;2023-02-12T06:51:41;12.65;;;5.80;;
67191;SDS011;54120;53.504;49.426;2023-02-12T06:54:14;10.57;;;6.32;;
67191;SDS011;54120;53.504;49.426;2023-02-12T06:56:41;11.52;;;7.18;;
67191;SDS011;54120;53.504;49.426;2023-02-12T06:59:09;10.55;;;6.18;;
67191;SDS011;54120;53.504;49.426;2023-02-12T07:01:39;9.38;;;5.75;;
67191;SDS011;54120;53.504;49.426;2023-02-12T07:04:05;7.57;;;4.97;;
67191;SDS011;54120;53.504;49.426;2023-02-12T07:06:32;8.38;;;5.13;;
67191;SDS011;54120;53.504;49.426;2023-02-12T07:08:59;10.32;;;5.75;;
67191;SDS011;54120;53.504;49.426;2023-02-12T07:11:27;10.98;;;6.40;;
67191;SDS011;54120;53.504;49.426;2023-02-12T07:13:55;10.50;;;6.28;;
67191;SDS011;54120;53.504;49.426;2023-02-12T07:16:21;10.10;;;6.07;;
67191;SDS011;54120;53.504;49.426;2023-02-12T07:18:47;9.02;;;5.68;;
67191;SDS011;54120;53.504;49.426;2023-02-12T07:21:14;9.90;;;6.05;;
67191;SDS011;54120;53.504;49.426;2023-02-12T07:23:41;12.50;;;5.95;;
67191;SDS011;54120;53.504;49.426;2023-02-12T07:26:11;9.82;;;5.78;;
67191;SDS011;54120;53.504;49.426;2023-02-12T07:28:38;10.23;;;6.30;;
67191;SDS011;54120;53.504;49.426;2023-02-12T07:31:09;11.13;;;6.13;;
67191;SDS011;54120;53.504;49.426;2023-02-12T07:33:43;8.02;;;5.63;;
67191;SDS011;54120;53.504;49.426;2023-02-12T07:36:10;8.30;;;5.88;;
67191;SDS011;54120;53.504;49.426;2023-02-12T07:38:38;9.40;;;5.65;;
67191;SDS011;54120;53.504;49.426;2023-02-12T07:41:05;14.40;;;8.50;;
67191;SDS011;54120;53.504;49.426;2023-02-12T07:43:31;11.20;;;7.07;;
67191;SDS011;54120;53.504;49.426;2023-02-12T07:46:04;10.90;;;6.78;;
67191;SDS011;54120;53.504;49.426;2023-02-12T07:48:31;9.55;;;5.75;;
67191;SDS011;54120;53.504;49.426;2023-02-12T07:51:01;13.15;;;7.72;;
67191;SDS011;54120;53.504;49.426;2023-02-12T07:53:29;11.88;;;6.35;;
67191;SDS011;54120;53.504;49.426;2023-02-12T07:55:55;10.82;;;6.38;;
67191;SDS011;54120;53.504;49.426;2023-02-12T07:58:28;11.65;;;7.50;;
67191;SDS011;54120;53.504;49.426;2023-02-12T08:00:54;11.43;;;7.13;;
67191;SDS011;54120;53.504;49.426;2023-02-12T08:03:20;12.98;;;6.70;;
67191;SDS011;54120;53.504;49.426;2023-02-12T08:05:46;10.77;;;6.35;;
67191;SDS011;54120;53.504;49.426;2023-02-12T08:08:12;10.23;;;7.30;;
67191;SDS011;54120;53.504;49.426;2023-02-12T08:10:38;10.50;;;6.53;;
67191;SDS011;54120;53.504;49.426;2023-02-12T08:13:04;9.65;;;5.97;;
67191;SDS011;54120;53.504;49.426;2023-02-12T08:15:29;12.18;;;5.90;;
67191;SDS011;54120;53.504;49.426;2023-02-12T08:17:55;9.27;;;6.40;;
67191;SDS011;54120;53.504;49.426;2023-02-12T08:20:21;12.13;;;6.93;;
67191;SDS011;54120;53.504;49.426;2023-02-12T08:22:47;10.40;;;6.40;;
67191;SDS011;54120;53.504;49.426;2023-02-12T08:25:13;11.27;;;6.85;;
67191;SDS011;54120;53.504;49.426;2023-02-12T08:27:42;11.73;;;6.18;;
67191;SDS011;54120;53.504;49.426;2023-02-12T08:30:08;11.32;;;6.72;;
67191;SDS011;54120;53.504;49.426;2023-02-12T08:32:34;9.02;;;6.50;;
67191;SDS011;54120;53.504;49.426;2023-02-12T08:35:00;13.65;;;6.72;;
67191;SDS011;54120;53.504;49.426;2023-02-12T08:37:26;11.52;;;6.30;;
67191;SDS011;54120;53.504;49.426;2023-02-12T08:39:52;10.77;;;7.03;;
67191;SDS011;54120;53.504;49.426;2023-02-12T08:42:18;8.95;;;6.50;;
67191;SDS011;54120;53.504;49.426;2023-02-12T08:44:45;11.95;;;6.97;;
67191;SDS011;54120;53.504;49.426;2023-02-12T08:47:11;11.30;;;7.50;;
67191;SDS011;54120;53.504;49.426;2023-02-12T08:49:37;10.70;;;6.47;;
67191;SDS011;54120;53.504;49.426;2023-02-12T08:52:03;9.57;;;6.40;;
67191;SDS011;54120;53.504;49.426;2023-02-12T08:54:30;15.75;;;8.98;;
67191;SDS011;54120;53.504;49.426;2023-02-12T08:56:57;10.18;;;6.68;;
67191;SDS011;54120;53.504;49.426;2023-02-12T08:59:25;23.10;;;12.55;;
67191;SDS011;54120;53.504;49.426;2023-02-12T09:01:52;12.68;;;7.00;;
67191;SDS011;54120;53.504;49.426;2023-02-12T09:04:20;18.85;;;9.95;;
67191;SDS011;54120;53.504;49.426;2023-02-12T09:06:49;14.93;;;7.40;;
67191;SDS011;54120;53.504;49.426;2023-02-12T09:09:15;16.52;;;8.10;;
67191;SDS011;54120;53.504;49.426;2023-02-12T09:11:42;10.18;;;6.70;;
67191;SDS011;54120;53.504;49.426;2023-02-12T09:14:10;10.85;;;7.00;;
67191;SDS011;54120;53.504;49.426;2023-02-12T09:16:39;13.82;;;7.32;;
67191;SDS011;54120;53.504;49.426;2023-02-12T09:19:05;13.02;;;7.03;;
67191;SDS011;54120;53.504;49.426;2023-02-12T09:21:32;13.15;;;7.65;;
67191;SDS011;54120;53.504;49.426;2023-02-12T09:24:00;11.65;;;7.18;;
67191;SDS011;54120;53.504;49.426;2023-02-12T09:26:27;11.23;;;7.20;;
67191;SDS011;54120;53.504;49.426;2023-02-12T09:28:53;13.32;;;7.68;;
67191;SDS011;54120;53.504;49.426;2023-02-12T09:31:20;13.48;;;8.85;;
67191;SDS011;54120;53.504;49.426;2023-02-12T09:33:54;12.90;;;8.10;;
67191;SDS011;54120;53.504;49.426;2023-02-12T09:36:23;12.52;;;7.63;;
67191;SDS011;54120;53.504;49.426;2023-02-12T09:38:50;12.95;;;8.25;;
67191;SDS011;54120;53.504;49.426;2023-02-12T09:51:37;12.68;;;7.22;;
67191;SDS011;54120;53.504;49.426;2023-02-12T09:54:05;11.85;;;7.35;;
67191;SDS011;54120;53.504;49.426;2023-02-12T09:56:37;13.02;;;7.22;;
67191;SDS011;54120;53.504;49.426;2023-02-12T09:59:07;13.00;;;7.78;;
67191;SDS011;54120;53.504;49.426;2023-02-12T10:01:34;12.23;;;8.60;;
67191;SDS011;54120;53.504;49.426;2023-02-12T10:04:00;14.35;;;8.38;;
67191;SDS011;54120;53.504;49.426;2023-02-12T10:06:32;14.57;;;7.47;;
67191;SDS011;54120;53.504;49.426;2023-02-12T10:14:46;12.93;;;6.60;;
67191;SDS011;54120;53.504;49.426;2023-02-12T10:17:12;10.63;;;7.07;;
67191;SDS011;54120;53.504;49.426;2023-02-12T10:25:52;13.00;;;6.43;;
67191;SDS011;54120;53.504;49.426;2023-02-12T10:28:30;11.45;;;7.32;;
67191;SDS011;54120;53.504;49.426;2023-02-12T10:31:01;12.15;;;6.53;;
67191;SDS011;54120;53.504;49.426;2023-02-12T10:33:40;12.43;;;6.72;;
67191;SDS011;54120;53.504;49.426;2023-02-12T10:39:11;13.85;;;7.32;;
67191;SDS011;54120;53.504;49.426;2023-02-12T10:41:51;14.13;;;6.70;;
67191;SDS011;54120;53.504;49.426;2023-02-12T10:44:20;13.07;;;8.40;;
67191;SDS011;54120;53.504;49.426;2023-02-12T10:46:46;13.15;;;7.50;;
67191;SDS011;54120;53.504;49.426;2023-02-12T10:49:14;10.82;;;6.25;;
67191;SDS011;54120;53.504;49.426;2023-02-12T10:51:55;10.60;;;6.47;;
67191;SDS011;54120;53.504;49.426;2023-02-12T10:54:38;10.73;;;7.15;;
67191;SDS011;54120;53.504;49.426;2023-02-12T10:57:08;13.27;;;7.30;;
67191;SDS011;54120;53.504;49.426;2023-02-12T10:59:38;12.00;;;7.68;;
67191;SDS011;54120;53.504;49.426;2023-02-12T11:02:17;12.10;;;6.80;;
67191;SDS011;54120;53.504;49.426;2023-02-12T11:04:45;17.30;;;9.48;;
67191;SDS011;54120;53.504;49.426;2023-02-12T11:07:11;11.55;;;7.63;;
67191;SDS011;54120;53.504;49.426;2023-02-12T11:09:41;12.35;;;7.25;;
67191;SDS011;54120;53.504;49.426;2023-02-12T11:17:41;10.95;;;6.53;;
67191;SDS011;54120;53.504;49.426;2023-02-12T11:22:57;15.88;;;8.18;;
67191;SDS011;54120;53.504;49.426;2023-02-12T11:25:32;11.13;;;7.32;;
67191;SDS011;54120;53.504;49.426;2023-02-12T11:28:01;9.00;;;6.68;;
67191;SDS011;54120;53.504;49.426;2023-02-12T11:30:52;12.43;;;6.65;;
67191;SDS011;54120;53.504;49.426;2023-02-12T11:33:22;11.35;;;5.88;;
67191;SDS011;54120;53.504;49.426;2023-02-12T11:36:32;14.90;;;7.93;;
67191;SDS011;54120;53.504;49.426;2023-02-12T11:38:50;14.27;;;7.68;;
67191;SDS011;54120;53.504;49.426;2023-02-12T11:41:24;12.18;;;7.70;;
67191;SDS011;54120;53.504;49.426;2023-02-12T11:43:51;13.70;;;6.72;;
67191;SDS011;54120;53.504;49.426;2023-02-12T11:46:18;10.70;;;5.88;;
67191;SDS011;54120;53.504;49.426;2023-02-12T11:48:50;12.95;;;7.47;;
67191;SDS011;54120;53.504;49.426;2023-02-12T11:51:19;10.93;;;6.47;;
67191;SDS011;54120;53.504;49.426;2023-02-12T11:53:50;11.70;;;7.50;;
67191;SDS011;54120;53.504;49.426;2023-02-12T11:56:18;11.93;;;7.25;;
67191;SDS011;54120;53.504;49.426;2023-02-12T11:58:45;13.85;;;6.85;;
67191;SDS011;54120;53.504;49.426;2023-02-12T12:03:58;10.75;;;6.00;;
67191;SDS011;54120;53.504;49.426;2023-02-12T12:06:37;12.35;;;7.53;;
67191;SDS011;54120;53.504;49.426;2023-02-12T12:09:15;11.45;;;6.88;;
67191;SDS011;54120;53.504;49.426;2023-02-12T12:15:14;12.55;;;6.90;;
67191;SDS011;54120;53.504;49.426;2023-02-12T12:17:40;12.52;;;6.95;;
67191;SDS011;54120;53.504;49.426;2023-02-12T12:23:50;11.02;;;6.10;;
67191;SDS011;54120;53.504;49.426;2023-02-12T12:31:30;11.63;;;7.13;;
67191;SDS011;54120;53.504;49.426;2023-02-12T12:34:04;13.23;;;7.20;;
67191;SDS011;54120;53.504;49.426;2023-02-12T12:50:26;9.10;;;5.80;;
67191;SDS011;54120;53.504;49.426;2023-02-12T12:53:19;12.77;;;7.07;;
67191;SDS011;54120;53.504;49.426;2023-02-12T13:10:21;11.65;;;7.75;;
67191;SDS011;54120;53.504;49.426;2023-02-12T13:13:03;12.35;;;6.90;;
67191;SDS011;54120;53.504;49.426;2023-02-12T13:27:06;10.90;;;7.30;;
67191;SDS011;54120;53.504;49.426;2023-02-12T13:29:42;15.27;;;7.90;;
67191;SDS011;54120;53.504;49.426;2023-02-12T13:32:31;12.52;;;7.97;;
67191;SDS011;54120;53.504;49.426;2023-02-12T13:35:03;11.55;;;6.50;;
67191;SDS011;54120;53.504;49.426;2023-02-12T13:37:37;11.88;;;6.70;;
67191;SDS011;54120;53.504;49.426;2023-02-12T13:40:14;10.20;;;6.43;;
67191;SDS011;54120;53.504;49.426;2023-02-12T13:50:42;13.30;;;6.43;;
67191;SDS011;54120;53.504;49.426;2023-02-12T13:56:22;13.60;;;7.45;;
67191;SDS011;54120;53.504;49.426;2023-02-12T14:01:55;12.27;;;7.22;;
67191;SDS011;54120;53.504;49.426;2023-02-12T14:04:36;12.85;;;7.13;;
67191;SDS011;54120;53.504;49.426;2023-02-12T14:07:06;13.70;;;8.13;;
67191;SDS011;54120;53.504;49.426;2023-02-12T14:09:35;18.08;;;8.23;;
67191;SDS011;54120;53.504;49.426;2023-02-12T14:12:03;12.27;;;7.90;;
67191;SDS011;54120;53.504;49.426;2023-02-12T14:14:33;12.98;;;6.75;;
67191;SDS011;54120;53.504;49.426;2023-02-12T14:27:51;17.70;;;6.00;;
67191;SDS011;54120;53.504;49.426;2023-02-12T14:33:07;17.05;;;6.97;;
67191;SDS011;54120;53.504;49.426;2023-02-12T14:35:40;16.25;;;7.53;;
67191;SDS011;54120;53.504;49.426;2023-02-12T14:40:36;16.25;;;7.80;;
67191;SDS011;54120;53.504;49.426;2023-02-12T14:43:23;13.88;;;6.70;;
67191;SDS011;54120;53.504;49.426;2023-02-12T14:45:58;20.38;;;8.70;;
67191;SDS011;54120;53.504;49.426;2023-02-12T14:51:32;12.70;;;7.15;;
67191;SDS011;54120;53.504;49.426;2023-02-12T14:54:27;11.38;;;7.13;;
67191;SDS011;54120;53.504;49.426;2023-02-12T14:56:57;11.45;;;6.85;;
67191;SDS011;54120;53.504;49.426;2023-02-12T14:59:25;13.57;;;6.50;;
67191;SDS011;54120;53.504;49.426;2023-02-12T15:01:56;12.70;;;7.40;;
67191;SDS011;54120;53.504;49.426;2023-02-12T15:04:25;15.15;;;7.82;;
67191;SDS011;54120;53.504;49.426;2023-02-12T15:06:58;14.52;;;8.23;;
67191;SDS011;54120;53.504;49.426;2023-02-12T15:09:35;10.95;;;6.60;;
67191;SDS011;54120;53.504;49.426;2023-02-12T15:17:39;15.18;;;7.00;;
67191;SDS011;54120;53.504;49.426;2023-02-12T15:20:18;12.00;;;5.90;;
67191;SDS011;54120;53.504;49.426;2023-02-12T15:22:47;14.13;;;7.38;;
67191;SDS011;54120;53.504;49.426;2023-02-12T15:25:15;14.82;;;7.97;;
67191;SDS011;54120;53.504;49.426;2023-02-12T15:27:42;16.33;;;7.32;;
67191;SDS011;54120;53.504;49.426;2023-02-12T15:30:13;12.77;;;7.65;;
67191;SDS011;54120;53.504;49.426;2023-02-12T15:32:41;9.20;;;5.72;;
67191;SDS011;54120;53.504;49.426;2023-02-12T15:35:22;12.98;;;6.95;;
67191;SDS011;54120;53.504;49.426;2023-02-12T15:37:48;10.65;;;7.13;;
67191;SDS011;54120;53.504;49.426;2023-02-12T15:40:15;13.88;;;8.25;;
67191;SDS011;54120;53.504;49.426;2023-02-12T15:42:57;13.65;;;8.13;;
67191;SDS011;54120;53.504;49.426;2023-02-12T15:45:34;14.65;;;8.18;;
67191;SDS011;54120;53.504;49.426;2023-02-12T15:48:06;11.93;;;6.50;;
67191;SDS011;54120;53.504;49.426;2023-02-12T15:53:47;11.38;;;7.45;;
67191;SDS011;54120;53.504;49.426;2023-02-12T15:56:15;11.27;;;6.22;;
67191;SDS011;54120;53.504;49.426;2023-02-12T15:58:48;11.10;;;7.05;;
67191;SDS011;54120;53.504;49.426;2023-02-12T16:01:20;14.55;;;7.97;;
67191;SDS011;54120;53.504;49.426;2023-02-12T16:03:51;13.52;;;7.90;;
67191;SDS011;54120;53.504;49.426;2023-02-12T16:06:20;12.18;;;6.45;;
67191;SDS011;54120;53.504;49.426;2023-02-12T16:08:48;14.35;;;8.63;;
67191;SDS011;54120;53.504;49.426;2023-02-12T16:11:20;14.68;;;8.57;;
67191;SDS011;54120;53.504;49.426;2023-02-12T16:13:48;14.07;;;8.52;;
67191;SDS011;54120;53.504;49.426;2023-02-12T16:16:38;14.63;;;7.55;;
67191;SDS011;54120;53.504;49.426;2023-02-12T16:19:18;13.13;;;7.70;;
67191;SDS011;54120;53.504;49.426;2023-02-12T16:21:51;14.00;;;6.88;;
67191;SDS011;54120;53.504;49.426;2023-02-12T16:24:46;13.07;;;7.78;;
67191;SDS011;54120;53.504;49.426;2023-02-12T16:29:57;14.10;;;7.72;;
67191;SDS011;54120;53.504;49.426;2023-02-12T16:32:46;13.45;;;8.15;;
67191;SDS011;54120;53.504;49.426;2023-02-12T16:37:49;15.88;;;9.00;;
67191;SDS011;54120;53.504;49.426;2023-02-12T16:40:23;16.33;;;9.00;;
67191;SDS011;54120;53.504;49.426;2023-02-12T16:42:56;14.60;;;8.20;;
67191;SDS011;54120;53.504;49.426;2023-02-12T16:47:53;15.80;;;9.05;;
67191;SDS011;54120;53.504;49.426;2023-02-12T16:50:23;17.75;;;8.65;;
67191;SDS011;54120;53.504;49.426;2023-02-12T16:52:58;15.40;;;7.43;;
67191;SDS011;54120;53.504;49.426;2023-02-12T16:55:25;17.85;;;8.30;;
67191;SDS011;54120;53.504;49.426;2023-02-12T16:57:52;14.75;;;8.13;;
67191;SDS011;54120;53.504;49.426;2023-02-12T17:00:18;15.45;;;8.05;;
67191;SDS011;54120;53.504;49.426;2023-02-12T17:02:45;14.73;;;9.00;;
67191;SDS011;54120;53.504;49.426;2023-02-12T17:05:12;15.52;;;8.48;;
67191;SDS011;54120;53.504;49.426;2023-02-12T17:07:41;14.90;;;7.75;;
67191;SDS011;54120;53.504;49.426;2023-02-12T17:10:11;12.85;;;7.43;;
67191;SDS011;54120;53.504;49.426;2023-02-12T17:12:47;16.83;;;8.20;;
67191;SDS011;54120;53.504;49.426;2023-02-12T17:15:17;12.85;;;7.55;;
67191;SDS011;54120;53.504;49.426;2023-02-12T17:17:54;13.40;;;7.55;;
67191;SDS011;54120;53.504;49.426;2023-02-12T17:20:20;14.70;;;8.98;;
67191;SDS011;54120;53.504;49.426;2023-02-12T17:22:50;12.48;;;7.95;;
67191;SDS011;54120;53.504;49.426;2023-02-12T17:25:18;14.07;;;7.07;;
67191;SDS011;54120;53.504;49.426;2023-02-12T17:27:45;14.80;;;7.80;;
67191;SDS011;54120;53.504;49.426;2023-02-12T17:30:15;14.48;;;8.40;;